Aviation Digital Data Service (ADDS)

Output produced by METARs form (0420 UTC 26 April 2019)
found at http://www.aviationweather.gov/metar/data/
 
Forecast for: NFTV (VAVA'U ISLAND , FJ)
Text: TAF NFTV 252320Z 2600/2624 10009KT 9999 -SHRA FEW017 BKN100
Forecast period: 0000 UTC 26 April 2019 to 0000 UTC 27 April 2019
Forecast type: FROM: standard forecast or significant change
Winds: from the E (100 degrees) at 10 MPH (9 knots; 4.6 m/s)
Visibility: 6 or more miles 10+ km)
Ceiling: 10000 feet AGL
Clouds: few clouds at 1700 feet AGL
broken clouds at 10000 feet AGL
Weather: -SHRA  (light rain showers)
Text: TEMPO 2600/2606 3000 TSRA SCT008 BKN015 FEW018CB
Forecast period: 0000 to 0600 UTC 26 April 2019
Forecast type: TEMPORARY: The following changes expected for less than half the time period
Visibility: 1.86 miles (2.99 km)
Ceiling: 1500 feet AGL
Clouds: scattered clouds at 800 feet AGL
broken clouds at 1500 feet AGL
few clouds at 1800 feet AGL
Weather: TSRA  (rain associated with thunderstorm(s))
Text: PROB40
Forecast period: 1800 UTC 26 April 2019 to 0000 UTC 27 April 2019
Forecast type: TEMPORARY: The following changes expected for less than half the time period
Visibility: 3 miles (5 km)
Ceiling: 1500 feet AGL
Clouds: broken clouds at 1500 feet AGL
Weather: SHRA  (rain showers)